createdAt,value
2022-09-28T00:01:20.281Z,21.96
2022-09-28T00:03:47.305Z,21.91
2022-09-28T00:06:14.749Z,21.90
2022-09-28T00:08:41.094Z,21.95
2022-09-28T00:11:08.317Z,21.98
2022-09-28T00:13:35.241Z,22.00
2022-09-28T00:16:01.790Z,22.01
2022-09-28T00:18:28.508Z,22.03
2022-09-28T00:21:05.694Z,22.01
2022-09-28T00:23:33.105Z,22.03
2022-09-28T00:26:03.513Z,22.05
2022-09-28T00:28:31.349Z,22.03
2022-09-28T00:30:58.200Z,22.00
2022-09-28T00:33:24.777Z,21.97
2022-09-28T00:36:00.282Z,21.96
2022-09-28T00:38:27.848Z,21.98
2022-09-28T00:40:55.993Z,21.97
2022-09-28T00:43:23.645Z,21.94
2022-09-28T00:45:54.604Z,21.89
2022-09-28T00:48:21.112Z,21.87
2022-09-28T00:50:47.631Z,21.89
2022-09-28T00:53:23.669Z,21.90
2022-09-28T00:56:01.698Z,21.94
2022-09-28T00:58:29.879Z,21.91
2022-09-28T01:00:58.096Z,21.91
2022-09-28T01:03:25.335Z,21.92
2022-09-28T01:05:52.820Z,21.94
2022-09-28T01:08:21.133Z,21.95
2022-09-28T01:10:48.705Z,21.97
2022-09-28T01:13:16.218Z,21.97
2022-09-28T01:16:09.447Z,21.98
2022-09-28T01:18:42.271Z,21.99
2022-09-28T01:21:14.596Z,21.96
2022-09-28T01:23:53.288Z,21.94
2022-09-28T01:26:33.253Z,21.93
2022-09-28T01:29:04.600Z,21.92
2022-09-28T01:31:32.243Z,21.91
2022-09-28T01:34:00.968Z,21.89
2022-09-28T01:36:37.527Z,21.89
2022-09-28T01:39:13.402Z,21.92
2022-09-28T01:41:41.132Z,21.92
2022-09-28T01:44:10.431Z,21.91
2022-09-28T01:46:38.487Z,21.91
2022-09-28T01:49:14.845Z,21.92
2022-09-28T01:51:44.755Z,21.92
2022-09-28T01:54:16.547Z,21.91
2022-09-28T01:56:46.129Z,21.93
2022-09-28T01:59:15.629Z,21.92
2022-09-28T02:02:02.332Z,21.92
2022-09-28T02:04:31.482Z,21.93
2022-09-28T02:07:02.451Z,21.90
2022-09-28T02:09:35.535Z,21.87
2022-09-28T02:12:05.873Z,21.84
2022-09-28T02:14:34.865Z,21.86
2022-09-28T02:17:02.029Z,21.86
2022-09-28T02:19:29.906Z,21.85
2022-09-28T02:21:57.783Z,21.85
2022-09-28T02:24:36.199Z,21.86
2022-09-28T02:27:06.754Z,21.90
2022-09-28T02:29:33.213Z,21.88
2022-09-28T02:32:00.083Z,21.86
2022-09-28T02:34:26.428Z,21.83
2022-09-28T02:36:53.004Z,21.84
2022-09-28T02:39:19.394Z,21.85
2022-09-28T02:41:51.734Z,21.85
2022-09-28T02:44:21.163Z,21.85
2022-09-28T02:47:13.871Z,21.87
2022-09-28T02:49:49.799Z,21.90
2022-09-28T02:52:47.009Z,21.93
2022-09-28T02:55:16.449Z,21.93
2022-09-28T02:58:01.588Z,21.94
2022-09-28T03:00:29.831Z,21.96
2022-09-28T03:03:04.165Z,21.95
2022-09-28T03:05:33.353Z,21.91
2022-09-28T03:08:01.049Z,21.84
2022-09-28T03:10:46.126Z,21.82
2022-09-28T03:13:13.587Z,21.83
2022-09-28T03:15:45.165Z,21.84
2022-09-28T03:18:14.351Z,21.88
2022-09-28T03:20:40.710Z,21.89
2022-09-28T03:23:23.926Z,21.91
2022-09-28T03:25:51.337Z,21.91
2022-09-28T03:28:17.701Z,21.92
2022-09-28T03:30:44.053Z,21.89
2022-09-28T03:33:10.445Z,21.93
2022-09-28T03:35:36.850Z,21.92
2022-09-28T03:38:03.231Z,21.93
2022-09-28T03:40:29.776Z,21.91
2022-09-28T03:42:56.143Z,21.89
2022-09-28T03:45:22.522Z,21.90
2022-09-28T03:47:49.118Z,21.89
2022-09-28T03:50:15.795Z,21.91
2022-09-28T03:52:42.293Z,21.93
2022-09-28T03:55:09.270Z,21.93
2022-09-28T03:57:35.608Z,21.92
2022-09-28T04:00:02.220Z,21.91
2022-09-28T04:02:28.780Z,21.93
2022-09-28T04:04:55.138Z,21.94
2022-09-28T04:07:21.550Z,21.93
2022-09-28T04:09:47.927Z,21.96
2022-09-28T04:12:14.295Z,21.96
2022-09-28T04:14:40.650Z,21.95
2022-09-28T04:17:07.234Z,21.93
2022-09-28T04:19:33.752Z,21.93
2022-09-28T04:22:01.459Z,21.90
2022-09-28T04:24:28.063Z,21.87
2022-09-28T04:27:14.414Z,21.87
2022-09-28T04:29:43.918Z,21.85
2022-09-28T04:32:10.933Z,21.86
2022-09-28T04:34:39.664Z,21.83
2022-09-28T04:37:09.717Z,21.80
2022-09-28T04:39:36.095Z,21.79
2022-09-28T04:42:02.432Z,21.80
2022-09-28T04:44:28.781Z,21.81
2022-09-28T04:46:55.583Z,21.82
2022-09-28T04:49:21.938Z,21.85
2022-09-28T04:51:48.283Z,21.89
2022-09-28T04:54:14.614Z,21.93
2022-09-28T04:56:41.795Z,21.91
2022-09-28T04:59:08.148Z,21.91
2022-09-28T05:01:34.738Z,21.92
2022-09-28T05:04:01.282Z,21.92
2022-09-28T05:06:30.488Z,21.92
2022-09-28T05:08:57.574Z,21.92
2022-09-28T05:11:24.190Z,21.92
2022-09-28T05:13:50.654Z,21.91
2022-09-28T05:16:17.458Z,21.90
2022-09-28T05:18:43.859Z,21.89
2022-09-28T05:21:14.411Z,21.88
2022-09-28T05:23:41.431Z,21.88
2022-09-28T05:26:08.199Z,21.88
2022-09-28T05:28:34.545Z,21.88
2022-09-28T05:31:01.676Z,21.87
2022-09-28T05:33:28.695Z,21.86
2022-09-28T05:35:59.060Z,21.88
2022-09-28T05:38:27.425Z,21.89
2022-09-28T05:40:53.879Z,21.89
2022-09-28T05:43:20.300Z,21.91
2022-09-28T05:45:47.359Z,21.93
2022-09-28T05:48:15.771Z,21.93
2022-09-28T05:50:42.145Z,21.93
2022-09-28T05:53:09.373Z,21.93
2022-09-28T05:55:36.420Z,21.92
2022-09-28T05:58:04.178Z,21.89
2022-09-28T06:00:31.530Z,21.89
2022-09-28T06:03:05.476Z,21.87
2022-09-28T06:05:36.183Z,21.88
2022-09-28T06:08:04.355Z,21.91
2022-09-28T06:10:31.236Z,21.92
2022-09-28T06:12:58.318Z,21.92
2022-09-28T06:15:26.139Z,21.94
2022-09-28T06:17:56.419Z,21.96
2022-09-28T06:20:22.803Z,21.97
2022-09-28T06:22:55.368Z,21.98
2022-09-28T06:25:22.616Z,21.97
2022-09-28T06:27:55.661Z,21.98
2022-09-28T06:30:22.493Z,21.97
2022-09-28T06:32:51.813Z,21.94
2022-09-28T06:35:18.466Z,21.91
2022-09-28T06:37:45.151Z,21.89
2022-09-28T06:40:11.541Z,21.92
2022-09-28T06:42:37.924Z,21.94
2022-09-28T06:45:04.670Z,21.94
2022-09-28T06:47:33.371Z,21.93
2022-09-28T06:49:59.954Z,21.93
2022-09-28T06:52:26.320Z,21.93
2022-09-28T06:54:52.712Z,21.93
2022-09-28T06:57:19.190Z,21.90
2022-09-28T06:59:45.595Z,21.89
2022-09-28T07:02:15.510Z,21.87
2022-09-28T07:04:45.029Z,21.89
2022-09-28T07:07:11.820Z,21.95
2022-09-28T07:09:42.723Z,21.97
2022-09-28T07:12:13.405Z,21.99
2022-09-28T07:14:47.868Z,22.00
2022-09-28T07:17:15.209Z,22.02
2022-09-28T07:19:41.922Z,22.01
2022-09-28T07:22:08.321Z,22.02
2022-09-28T07:24:34.759Z,22.01
2022-09-28T07:27:01.942Z,22.01
2022-09-28T07:29:28.311Z,22.02
2022-09-28T07:31:54.760Z,22.02
2022-09-28T07:34:23.135Z,22.01
2022-09-28T07:36:49.620Z,22.01
2022-09-28T07:39:16.027Z,22.02
2022-09-28T07:41:43.086Z,22.02
2022-09-28T07:44:09.448Z,22.01
2022-09-28T07:46:36.921Z,22.02
2022-09-28T07:49:09.799Z,22.02
2022-09-28T07:51:38.733Z,22.03
2022-09-28T07:54:06.518Z,22.03
2022-09-28T07:56:34.847Z,22.03
2022-09-28T07:59:01.410Z,22.03
2022-09-28T08:01:28.072Z,22.04
2022-09-28T08:03:56.289Z,22.04
2022-09-28T08:06:23.274Z,22.05
2022-09-28T08:08:50.253Z,22.06
2022-09-28T08:11:18.765Z,22.06
2022-09-28T08:13:46.461Z,22.05
2022-09-28T08:16:13.343Z,22.00
2022-09-28T08:18:39.849Z,21.97
2022-09-28T08:21:24.929Z,22.01
2022-09-28T08:23:51.641Z,22.05
2022-09-28T08:26:18.153Z,22.05
2022-09-28T08:28:45.187Z,22.08
2022-09-28T08:31:11.767Z,22.10
2022-09-28T08:33:38.505Z,22.13
2022-09-28T08:36:05.185Z,22.14
2022-09-28T08:38:32.006Z,22.15
2022-09-28T08:41:04.651Z,22.17
2022-09-28T08:43:31.205Z,22.19
2022-09-28T08:45:59.286Z,22.19
2022-09-28T08:48:49.027Z,22.24
2022-09-28T08:51:27.304Z,22.23
2022-09-28T08:54:05.795Z,22.22
2022-09-28T08:56:43.774Z,22.25
2022-09-28T08:59:14.569Z,22.23
2022-09-28T09:01:56.406Z,22.25
2022-09-28T09:04:24.005Z,22.25
2022-09-28T09:07:07.831Z,22.25
2022-09-28T09:09:46.451Z,22.24
2022-09-28T09:12:24.195Z,22.23
2022-09-28T09:15:09.209Z,22.26
2022-09-28T09:17:35.618Z,22.27
2022-09-28T09:20:14.978Z,22.27
2022-09-28T09:23:00.726Z,22.28
2022-09-28T09:25:47.992Z,22.28
2022-09-28T09:28:33.131Z,22.28
2022-09-28T09:31:02.659Z,22.29
2022-09-28T09:33:44.548Z,22.30
2022-09-28T09:36:10.996Z,22.30
2022-09-28T09:38:56.188Z,22.33
2022-09-28T09:41:28.949Z,22.33
2022-09-28T09:44:01.416Z,22.33
2022-09-28T09:46:27.870Z,22.33
2022-09-28T09:49:03.355Z,22.22
2022-09-28T09:51:32.864Z,22.06
2022-09-28T09:54:01.932Z,21.96
2022-09-28T09:56:40.325Z,21.83
2022-09-28T09:59:19.020Z,21.73
2022-09-28T10:01:46.056Z,21.57
2022-09-28T10:04:17.779Z,21.45
2022-09-28T10:06:44.223Z,21.31
2022-09-28T10:09:16.931Z,21.22
2022-09-28T10:11:45.201Z,21.14
2022-09-28T10:14:21.367Z,21.11
2022-09-28T10:16:49.567Z,20.98
2022-09-28T10:19:18.241Z,20.91
2022-09-28T10:21:46.835Z,20.88
2022-09-28T10:24:29.511Z,20.88
2022-09-28T10:26:56.627Z,20.84
2022-09-28T10:29:25.024Z,20.83
2022-09-28T10:31:54.696Z,20.73
2022-09-28T10:34:30.817Z,20.64
2022-09-28T10:37:06.308Z,20.58
2022-09-28T10:39:34.446Z,20.57
2022-09-28T10:42:04.994Z,20.59
2022-09-28T10:44:35.738Z,20.56
2022-09-28T10:47:04.135Z,20.59
2022-09-28T10:49:46.570Z,20.55
2022-09-28T10:52:32.311Z,20.46
2022-09-28T10:54:58.892Z,20.45
2022-09-28T10:57:43.397Z,20.47
2022-09-28T11:00:28.993Z,20.54
2022-09-28T11:02:55.922Z,20.56
2022-09-28T11:05:24.700Z,20.57
2022-09-28T11:07:52.680Z,20.49
2022-09-28T11:10:20.727Z,20.51
2022-09-28T11:12:47.980Z,20.54
2022-09-28T11:15:18.548Z,20.59
2022-09-28T11:17:45.028Z,20.62
2022-09-28T11:20:26.077Z,20.67
2022-09-28T11:22:54.900Z,20.72
2022-09-28T11:25:22.231Z,20.76
2022-09-28T11:27:51.584Z,20.79
2022-09-28T11:30:22.068Z,20.82
2022-09-28T11:32:48.497Z,20.86
2022-09-28T11:35:19.901Z,20.90
2022-09-28T11:38:06.689Z,20.94
2022-09-28T11:40:52.095Z,20.97
2022-09-28T11:43:24.746Z,21.00
2022-09-28T11:46:00.498Z,21.02
2022-09-28T11:48:36.871Z,21.05
2022-09-28T11:51:09.051Z,21.07
2022-09-28T11:53:51.679Z,21.10
2022-09-28T11:56:30.806Z,21.11
2022-09-28T11:59:04.100Z,21.15
2022-09-28T12:01:37.049Z,21.16
2022-09-28T12:04:24.740Z,21.18
2022-09-28T12:06:59.084Z,21.21
2022-09-28T12:09:31.773Z,21.22
2022-09-28T12:12:01.637Z,21.23
2022-09-28T12:14:29.583Z,21.26
2022-09-28T12:17:08.032Z,21.27
2022-09-28T12:19:38.947Z,21.29
2022-09-28T12:22:11.992Z,21.28
2022-09-28T12:24:42.225Z,21.29
2022-09-28T12:27:17.703Z,21.31
2022-09-28T12:29:53.424Z,21.32
2022-09-28T12:32:22.682Z,21.34
2022-09-28T12:34:49.021Z,21.34
2022-09-28T12:37:15.474Z,21.35
2022-09-28T12:39:57.083Z,21.36
2022-09-28T12:42:52.916Z,21.36
2022-09-28T12:45:53.155Z,21.40
2022-09-28T12:48:36.200Z,21.39
2022-09-28T12:51:09.245Z,21.40
2022-09-28T12:53:54.596Z,21.41
2022-09-28T12:56:41.280Z,21.38
2022-09-28T12:59:26.115Z,21.44
2022-09-28T13:02:10.807Z,21.46
2022-09-28T13:04:44.345Z,21.45
2022-09-28T13:07:29.766Z,21.47
2022-09-28T13:10:33.142Z,21.45
2022-09-28T13:12:59.502Z,21.47
2022-09-28T13:15:32.090Z,21.48
2022-09-28T13:17:58.552Z,21.48
2022-09-28T13:20:35.784Z,21.48
2022-09-28T13:23:08.976Z,21.47
2022-09-28T13:25:36.871Z,21.48
2022-09-28T13:28:05.056Z,21.49
2022-09-28T13:30:38.446Z,21.47
2022-09-28T13:33:05.987Z,21.48
2022-09-28T13:35:33.324Z,21.50
2022-09-28T13:38:20.782Z,21.50
2022-09-28T13:41:06.099Z,21.50
2022-09-28T13:43:52.892Z,21.51
2022-09-28T13:46:25.270Z,21.49
2022-09-28T13:49:03.394Z,21.50
2022-09-28T13:51:39.331Z,21.50
2022-09-28T13:54:15.731Z,21.48
2022-09-28T13:57:01.479Z,21.49
2022-09-28T13:59:29.750Z,21.45
2022-09-28T14:02:09.949Z,21.46
2022-09-28T14:04:53.842Z,21.45
2022-09-28T14:07:21.630Z,21.47
2022-09-28T14:10:07.362Z,21.47
2022-09-28T14:12:33.704Z,21.49
2022-09-28T14:15:00.489Z,21.48
2022-09-28T14:17:31.171Z,21.49
2022-09-28T14:20:02.144Z,21.50
2022-09-28T14:22:47.313Z,21.50
2022-09-28T14:25:17.168Z,21.50
2022-09-28T14:28:02.474Z,21.52
2022-09-28T14:30:38.061Z,21.51
2022-09-28T14:33:16.077Z,21.51
2022-09-28T14:35:49.493Z,21.53
2022-09-28T14:38:39.418Z,21.54
2022-09-28T14:41:10.654Z,21.53
2022-09-28T14:43:45.881Z,21.53
2022-09-28T14:46:13.160Z,21.55
2022-09-28T14:48:50.333Z,21.56
2022-09-28T14:51:44.056Z,21.55
2022-09-28T14:54:13.488Z,21.55
2022-09-28T14:56:46.027Z,21.57
2022-09-28T14:59:25.220Z,21.57
2022-09-28T15:01:51.631Z,21.56
2022-09-28T15:04:19.155Z,21.58
2022-09-28T15:06:46.560Z,21.58
2022-09-28T15:09:32.546Z,21.58
2022-09-28T15:12:02.346Z,21.57
2022-09-28T15:14:31.878Z,21.57
2022-09-28T15:17:08.553Z,21.58
2022-09-28T15:19:50.287Z,21.57
2022-09-28T15:22:17.130Z,21.57
2022-09-28T15:25:03.076Z,21.57
2022-09-28T15:27:39.142Z,21.57
2022-09-28T15:30:14.900Z,21.57
2022-09-28T15:32:41.407Z,21.58
2022-09-28T15:35:20.702Z,21.57
2022-09-28T15:37:52.825Z,21.57
2022-09-28T15:40:25.460Z,21.58
2022-09-28T15:42:54.783Z,21.57
2022-09-28T15:45:26.729Z,21.56
2022-09-28T15:47:58.465Z,21.57
2022-09-28T15:50:25.184Z,21.55
2022-09-28T15:53:02.046Z,21.56
2022-09-28T15:55:44.514Z,21.56
2022-09-28T15:58:18.260Z,21.54
2022-09-28T16:00:46.368Z,21.54
2022-09-28T16:03:23.398Z,21.54
2022-09-28T16:05:58.983Z,21.55
2022-09-28T16:08:40.049Z,21.55
2022-09-28T16:11:18.789Z,21.54
2022-09-28T16:13:48.727Z,21.55
2022-09-28T16:16:16.442Z,21.54
2022-09-28T16:18:48.127Z,21.54
2022-09-28T16:21:26.822Z,21.54
2022-09-28T16:23:58.181Z,21.54
2022-09-28T16:26:33.244Z,21.54
2022-09-28T16:29:00.093Z,21.55
2022-09-28T16:31:28.651Z,21.54
2022-09-28T16:34:01.265Z,21.54
2022-09-28T16:36:29.954Z,21.56
2022-09-28T16:38:56.349Z,21.55
2022-09-28T16:41:24.679Z,21.56
2022-09-28T16:43:55.053Z,21.56
2022-09-28T16:46:23.754Z,21.55
2022-09-28T16:48:50.385Z,21.56
2022-09-28T16:51:17.647Z,21.56
2022-09-28T16:54:03.311Z,21.56
2022-09-28T16:56:30.393Z,21.55
2022-09-28T16:58:57.041Z,21.55
2022-09-28T17:01:24.234Z,21.57
2022-09-28T17:03:51.123Z,21.57
2022-09-28T17:06:19.093Z,21.57
2022-09-28T17:08:45.649Z,21.57
2022-09-28T17:11:20.513Z,21.57
2022-09-28T17:13:50.147Z,21.58
2022-09-28T17:16:18.382Z,21.57
2022-09-28T17:18:45.910Z,21.57
2022-09-28T17:21:14.590Z,21.57
2022-09-28T17:23:41.471Z,21.58
2022-09-28T17:26:08.090Z,21.58
2022-09-28T17:28:35.726Z,21.58
2022-09-28T17:31:03.168Z,21.58
2022-09-28T17:33:29.788Z,21.58
2022-09-28T17:36:01.336Z,21.58
2022-09-28T17:38:28.935Z,21.57
2022-09-28T17:40:55.464Z,21.57
2022-09-28T17:43:22.426Z,21.58
2022-09-28T17:45:49.095Z,21.58
2022-09-28T17:48:17.360Z,21.57
2022-09-28T17:50:46.605Z,21.59
2022-09-28T17:53:13.743Z,21.58
2022-09-28T17:55:40.652Z,21.59
2022-09-28T17:58:17.913Z,21.58
2022-09-28T18:00:45.479Z,21.58
2022-09-28T18:03:13.815Z,21.58
2022-09-28T18:05:40.319Z,21.59
2022-09-28T18:08:06.830Z,21.58
2022-09-28T18:10:33.858Z,21.58
2022-09-28T18:13:00.388Z,21.57
2022-09-28T18:15:27.861Z,21.58
2022-09-28T18:17:54.401Z,21.58
2022-09-28T18:20:20.855Z,21.57
2022-09-28T18:22:49.141Z,21.57
2022-09-28T18:25:15.592Z,21.57
2022-09-28T18:27:42.103Z,21.57
2022-09-28T18:30:08.892Z,21.57
2022-09-28T18:32:36.909Z,21.56
2022-09-28T18:35:07.584Z,21.57
2022-09-28T18:37:38.335Z,21.56
2022-09-28T18:40:05.275Z,21.56
2022-09-28T18:42:32.204Z,21.55
2022-09-28T18:44:58.659Z,21.55
2022-09-28T18:47:25.546Z,21.55
2022-09-28T18:49:51.917Z,21.53
2022-09-28T18:52:18.270Z,21.54
2022-09-28T18:54:46.629Z,21.53
2022-09-28T18:57:13.042Z,21.54
2022-09-28T18:59:39.437Z,21.54
2022-09-28T19:02:06.017Z,21.53
2022-09-28T19:04:32.634Z,21.54
2022-09-28T19:06:59.025Z,21.52
2022-09-28T19:09:26.434Z,21.52
2022-09-28T19:11:52.836Z,21.52
2022-09-28T19:14:19.355Z,21.52
2022-09-28T19:16:46.255Z,21.51
2022-09-28T19:19:13.756Z,21.51
2022-09-28T19:21:40.511Z,21.51
2022-09-28T19:24:06.967Z,21.51
2022-09-28T19:26:33.450Z,21.50
2022-09-28T19:28:59.932Z,21.51
2022-09-28T19:31:27.073Z,21.51
2022-09-28T19:33:53.763Z,21.50
2022-09-28T19:36:23.554Z,21.51
2022-09-28T19:38:50.400Z,21.52
2022-09-28T19:41:39.347Z,21.49
2022-09-28T19:44:37.330Z,21.50
2022-09-28T19:47:07.300Z,21.49
2022-09-28T19:49:37.755Z,21.48
2022-09-28T19:52:20.788Z,21.48
2022-09-28T19:54:57.459Z,21.50
2022-09-28T19:57:25.956Z,21.49
2022-09-28T19:59:54.362Z,21.49
2022-09-28T20:02:23.149Z,21.48
2022-09-28T20:04:49.751Z,21.48
2022-09-28T20:07:16.181Z,21.48
2022-09-28T20:09:42.589Z,21.47
2022-09-28T20:12:09.285Z,21.46
2022-09-28T20:14:38.301Z,21.47
2022-09-28T20:17:07.162Z,21.47
2022-09-28T20:19:33.672Z,21.46
2022-09-28T20:22:02.679Z,21.46
2022-09-28T20:24:29.345Z,21.47
2022-09-28T20:26:55.903Z,21.45
2022-09-28T20:29:24.241Z,21.46
2022-09-28T20:31:51.758Z,21.47
2022-09-28T20:34:18.219Z,21.47
2022-09-28T20:36:44.726Z,21.47
2022-09-28T20:39:11.412Z,21.46
2022-09-28T20:41:37.868Z,21.46
2022-09-28T20:44:06.116Z,21.47
2022-09-28T20:46:33.350Z,21.47
2022-09-28T20:48:59.912Z,21.46
2022-09-28T20:51:26.568Z,21.47
2022-09-28T20:53:54.602Z,21.48
2022-09-28T20:56:22.209Z,21.47
2022-09-28T20:58:50.693Z,21.48
2022-09-28T21:01:19.051Z,21.47
2022-09-28T21:03:49.632Z,21.47
2022-09-28T21:06:17.092Z,21.47
2022-09-28T21:08:44.340Z,21.49
2022-09-28T21:11:14.336Z,21.45
2022-09-28T21:13:42.793Z,21.40
2022-09-28T21:16:16.463Z,21.37
2022-09-28T21:18:42.939Z,21.39
2022-09-28T21:21:11.500Z,21.39
2022-09-28T21:23:37.996Z,21.38
2022-09-28T21:26:06.025Z,21.40
2022-09-28T21:28:32.658Z,21.42
2022-09-28T21:30:59.421Z,21.43
2022-09-28T21:33:27.128Z,21.49
2022-09-28T21:35:53.778Z,21.49
2022-09-28T21:38:20.170Z,21.49
2022-09-28T21:40:46.682Z,21.55
2022-09-28T21:43:13.108Z,21.59
2022-09-28T21:45:39.727Z,21.59
2022-09-28T21:48:06.076Z,21.55
2022-09-28T21:50:32.577Z,21.52
2022-09-28T21:52:59.245Z,21.51
2022-09-28T21:55:25.612Z,21.49
2022-09-28T21:57:51.994Z,21.52
2022-09-28T22:00:19.771Z,21.55
2022-09-28T22:02:46.364Z,21.62
2022-09-28T22:05:13.074Z,21.67
2022-09-28T22:07:40.121Z,21.66
2022-09-28T22:10:07.442Z,21.67
2022-09-28T22:12:33.928Z,21.68
2022-09-28T22:15:00.385Z,21.70
2022-09-28T22:17:26.750Z,21.69
2022-09-28T22:19:53.266Z,21.67
2022-09-28T22:22:19.625Z,21.64
2022-09-28T22:24:45.953Z,21.62
2022-09-28T22:27:12.451Z,21.64
2022-09-28T22:29:38.818Z,21.64
2022-09-28T22:32:05.551Z,21.64
2022-09-28T22:34:32.155Z,21.63
2022-09-28T22:36:58.910Z,21.58
2022-09-28T22:39:25.528Z,21.58
2022-09-28T22:41:52.558Z,21.57
2022-09-28T22:44:19.785Z,21.56
2022-09-28T22:46:46.764Z,21.55
2022-09-28T22:49:13.592Z,21.55
2022-09-28T22:51:40.291Z,21.54
2022-09-28T22:54:07.200Z,21.49
2022-09-28T22:56:33.566Z,21.51
2022-09-28T22:59:00.091Z,21.50
2022-09-28T23:01:28.049Z,21.50
2022-09-28T23:03:55.461Z,21.51
2022-09-28T23:06:23.303Z,21.51
2022-09-28T23:08:50.953Z,21.52
2022-09-28T23:11:17.850Z,21.49
2022-09-28T23:13:48.562Z,21.49
2022-09-28T23:16:15.155Z,21.50
2022-09-28T23:18:41.767Z,21.50
2022-09-28T23:21:12.809Z,21.55
2022-09-28T23:23:39.180Z,21.56
2022-09-28T23:26:16.321Z,21.57
2022-09-28T23:28:43.270Z,21.55
2022-09-28T23:31:15.391Z,21.54
2022-09-28T23:33:41.954Z,21.50
2022-09-28T23:36:08.523Z,21.47
2022-09-28T23:38:34.908Z,21.45
2022-09-28T23:41:01.540Z,21.46
2022-09-28T23:43:27.977Z,21.50
2022-09-28T23:45:54.436Z,21.51
2022-09-28T23:48:20.800Z,21.51
2022-09-28T23:50:47.270Z,21.50
2022-09-28T23:53:14.402Z,21.53
2022-09-28T23:55:42.219Z,21.53
2022-09-28T23:58:08.856Z,21.52
